sensor_id;sensor_type;location;lat;lon;timestamp;temperature;humidity
41481;DHT22;27217;51.220;5.308;2023-07-20T00:00:53;17.80;99.90
41481;DHT22;27217;51.220;5.308;2023-07-20T00:03:19;17.90;99.90
41481;DHT22;27217;51.220;5.308;2023-07-20T00:05:51;17.70;99.90
41481;DHT22;27217;51.220;5.308;2023-07-20T00:08:18;17.50;99.90
41481;DHT22;27217;51.220;5.308;2023-07-20T00:10:44;17.40;99.90
41481;DHT22;27217;51.220;5.308;2023-07-20T00:13:13;17.20;99.90
41481;DHT22;27217;51.220;5.308;2023-07-20T00:15:41;17.30;99.90
41481;DHT22;27217;51.220;5.308;2023-07-20T00:18:07;17.50;99.90
41481;DHT22;27217;51.220;5.308;2023-07-20T00:20:33;17.70;99.90
41481;DHT22;27217;51.220;5.308;2023-07-20T00:22:59;17.70;99.90
41481;DHT22;27217;51.220;5.308;2023-07-20T00:25:25;17.40;99.90
41481;DHT22;27217;51.220;5.308;2023-07-20T00:27:51;17.20;99.90
41481;DHT22;27217;51.220;5.308;2023-07-20T00:30:18;17.60;99.90
41481;DHT22;27217;51.220;5.308;2023-07-20T00:32:44;17.10;99.90
41481;DHT22;27217;51.220;5.308;2023-07-20T00:35:10;17.30;99.90
41481;DHT22;27217;51.220;5.308;2023-07-20T00:37:37;17.30;99.90
41481;DHT22;27217;51.220;5.308;2023-07-20T00:40:03;17.50;99.90
41481;DHT22;27217;51.220;5.308;2023-07-20T00:42:49;17.30;99.90
41481;DHT22;27217;51.220;5.308;2023-07-20T00:45:15;17.20;99.90
41481;DHT22;27217;51.220;5.308;2023-07-20T00:47:40;17.10;99.90
41481;DHT22;27217;51.220;5.308;2023-07-20T00:50:07;17.10;99.90
41481;DHT22;27217;51.220;5.308;2023-07-20T00:52:33;17.30;99.90
41481;DHT22;27217;51.220;5.308;2023-07-20T00:54:59;17.20;99.90
41481;DHT22;27217;51.220;5.308;2023-07-20T00:57:25;16.90;99.90
41481;DHT22;27217;51.220;5.308;2023-07-20T00:59:51;16.80;99.90
41481;DHT22;27217;51.220;5.308;2023-07-20T01:02:17;16.90;99.90
41481;DHT22;27217;51.220;5.308;2023-07-20T01:04:43;17.10;99.90
41481;DHT22;27217;51.220;5.308;2023-07-20T01:07:25;17.20;99.90
41481;DHT22;27217;51.220;5.308;2023-07-20T01:12:37;17.00;99.90
41481;DHT22;27217;51.220;5.308;2023-07-20T01:15:06;16.80;99.90
41481;DHT22;27217;51.220;5.308;2023-07-20T01:17:34;16.80;99.90
41481;DHT22;27217;51.220;5.308;2023-07-20T01:19:59;17.00;99.90
41481;DHT22;27217;51.220;5.308;2023-07-20T01:31:30;16.40;99.90
41481;DHT22;27217;51.220;5.308;2023-07-20T01:33:58;16.50;99.90
41481;DHT22;27217;51.220;5.308;2023-07-20T01:36:29;16.50;99.90
41481;DHT22;27217;51.220;5.308;2023-07-20T01:38:56;16.90;99.90
41481;DHT22;27217;51.220;5.308;2023-07-20T01:41:22;17.00;99.90
41481;DHT22;27217;51.220;5.308;2023-07-20T01:43:48;16.90;99.90
41481;DHT22;27217;51.220;5.308;2023-07-20T01:46:15;16.80;99.90
41481;DHT22;27217;51.220;5.308;2023-07-20T01:48:41;17.00;99.90
41481;DHT22;27217;51.220;5.308;2023-07-20T01:51:07;16.90;99.90
41481;DHT22;27217;51.220;5.308;2023-07-20T01:53:33;16.60;99.90
41481;DHT22;27217;51.220;5.308;2023-07-20T01:55:59;16.60;99.90
41481;DHT22;27217;51.220;5.308;2023-07-20T01:58:25;16.50;99.90
41481;DHT22;27217;51.220;5.308;2023-07-20T02:00:51;16.90;99.90
41481;DHT22;27217;51.220;5.308;2023-07-20T02:03:17;16.90;99.90
41481;DHT22;27217;51.220;5.308;2023-07-20T02:05:43;17.10;99.90
41481;DHT22;27217;51.220;5.308;2023-07-20T02:08:09;16.90;99.90
41481;DHT22;27217;51.220;5.308;2023-07-20T02:10:35;16.70;99.90
41481;DHT22;27217;51.220;5.308;2023-07-20T02:13:01;16.80;99.90
41481;DHT22;27217;51.220;5.308;2023-07-20T02:15:27;16.70;99.90
41481;DHT22;27217;51.220;5.308;2023-07-20T02:17:53;16.40;99.90
41481;DHT22;27217;51.220;5.308;2023-07-20T02:20:19;16.30;99.90
41481;DHT22;27217;51.220;5.308;2023-07-20T02:22:46;16.40;99.90
41481;DHT22;27217;51.220;5.308;2023-07-20T02:25:12;16.40;99.90
41481;DHT22;27217;51.220;5.308;2023-07-20T02:27:38;16.40;99.90
41481;DHT22;27217;51.220;5.308;2023-07-20T02:30:05;16.30;99.90
41481;DHT22;27217;51.220;5.308;2023-07-20T02:32:31;16.30;99.90
41481;DHT22;27217;51.220;5.308;2023-07-20T02:35:00;16.10;99.90
41481;DHT22;27217;51.220;5.308;2023-07-20T02:37:29;16.20;99.90
41481;DHT22;27217;51.220;5.308;2023-07-20T02:40:02;16.00;99.90
41481;DHT22;27217;51.220;5.308;2023-07-20T02:42:29;16.00;99.90
41481;DHT22;27217;51.220;5.308;2023-07-20T02:44:55;16.20;99.90
41481;DHT22;27217;51.220;5.308;2023-07-20T02:47:21;16.20;99.90
41481;DHT22;27217;51.220;5.308;2023-07-20T02:49:47;15.90;99.90
41481;DHT22;27217;51.220;5.308;2023-07-20T02:52:13;16.00;99.90
41481;DHT22;27217;51.220;5.308;2023-07-20T02:54:39;16.00;99.90
41481;DHT22;27217;51.220;5.308;2023-07-20T02:57:06;15.80;99.90
41481;DHT22;27217;51.220;5.308;2023-07-20T02:59:32;15.80;99.90
41481;DHT22;27217;51.220;5.308;2023-07-20T03:01:57;16.10;99.90
41481;DHT22;27217;51.220;5.308;2023-07-20T03:04:26;16.20;99.90
41481;DHT22;27217;51.220;5.308;2023-07-20T03:06:51;16.40;99.90
41481;DHT22;27217;51.220;5.308;2023-07-20T03:09:17;16.20;99.90
41481;DHT22;27217;51.220;5.308;2023-07-20T03:11:43;16.30;99.90
41481;DHT22;27217;51.220;5.308;2023-07-20T03:14:09;16.20;99.90
41481;DHT22;27217;51.220;5.308;2023-07-20T03:16:36;16.10;99.90
41481;DHT22;27217;51.220;5.308;2023-07-20T03:19:02;16.20;99.90
41481;DHT22;27217;51.220;5.308;2023-07-20T03:21:28;16.20;99.90
41481;DHT22;27217;51.220;5.308;2023-07-20T03:23:55;16.10;99.90
41481;DHT22;27217;51.220;5.308;2023-07-20T03:26:21;16.20;99.90
41481;DHT22;27217;51.220;5.308;2023-07-20T03:28:46;16.10;99.90
41481;DHT22;27217;51.220;5.308;2023-07-20T03:31:12;15.90;99.90
41481;DHT22;27217;51.220;5.308;2023-07-20T03:33:38;15.80;99.90
41481;DHT22;27217;51.220;5.308;2023-07-20T03:36:04;16.10;99.90
41481;DHT22;27217;51.220;5.308;2023-07-20T03:38:30;16.30;99.90
41481;DHT22;27217;51.220;5.308;2023-07-20T03:40:58;15.90;99.90
41481;DHT22;27217;51.220;5.308;2023-07-20T03:43:25;15.80;99.90
41481;DHT22;27217;51.220;5.308;2023-07-20T03:45:51;15.80;99.90
41481;DHT22;27217;51.220;5.308;2023-07-20T03:48:20;15.60;99.90
41481;DHT22;27217;51.220;5.308;2023-07-20T03:50:47;15.70;99.90
41481;DHT22;27217;51.220;5.308;2023-07-20T03:53:16;15.60;99.90
41481;DHT22;27217;51.220;5.308;2023-07-20T03:55:49;15.60;99.90
41481;DHT22;27217;51.220;5.308;2023-07-20T03:58:16;15.50;99.90
41481;DHT22;27217;51.220;5.308;2023-07-20T04:00:50;15.60;99.90
41481;DHT22;27217;51.220;5.308;2023-07-20T04:03:17;15.60;99.90
41481;DHT22;27217;51.220;5.308;2023-07-20T04:05:44;15.70;99.90
41481;DHT22;27217;51.220;5.308;2023-07-20T04:08:11;15.80;99.90
41481;DHT22;27217;51.220;5.308;2023-07-20T04:10:38;15.80;99.90
41481;DHT22;27217;51.220;5.308;2023-07-20T04:13:04;15.80;99.90
41481;DHT22;27217;51.220;5.308;2023-07-20T04:15:30;15.70;99.90
41481;DHT22;27217;51.220;5.308;2023-07-20T04:17:56;15.90;99.90
41481;DHT22;27217;51.220;5.308;2023-07-20T04:20:25;15.80;99.90
41481;DHT22;27217;51.220;5.308;2023-07-20T04:22:51;15.90;99.90
41481;DHT22;27217;51.220;5.308;2023-07-20T04:25:18;15.90;99.90
41481;DHT22;27217;51.220;5.308;2023-07-20T04:27:44;15.80;99.90
41481;DHT22;27217;51.220;5.308;2023-07-20T04:30:11;16.10;99.90
41481;DHT22;27217;51.220;5.308;2023-07-20T04:32:38;16.00;99.90
41481;DHT22;27217;51.220;5.308;2023-07-20T04:35:07;16.20;99.90
41481;DHT22;27217;51.220;5.308;2023-07-20T04:37:36;16.30;99.90
41481;DHT22;27217;51.220;5.308;2023-07-20T04:40:02;16.10;99.90
41481;DHT22;27217;51.220;5.308;2023-07-20T04:42:29;15.90;99.90
41481;DHT22;27217;51.220;5.308;2023-07-20T04:44:55;15.90;99.90
41481;DHT22;27217;51.220;5.308;2023-07-20T04:47:21;15.80;99.90
41481;DHT22;27217;51.220;5.308;2023-07-20T04:49:47;16.00;99.90
41481;DHT22;27217;51.220;5.308;2023-07-20T04:52:13;16.00;99.90
41481;DHT22;27217;51.220;5.308;2023-07-20T04:54:38;16.20;99.90
41481;DHT22;27217;51.220;5.308;2023-07-20T04:57:11;16.50;99.90
41481;DHT22;27217;51.220;5.308;2023-07-20T04:59:37;16.70;99.90
41481;DHT22;27217;51.220;5.308;2023-07-20T05:02:04;16.80;99.90
41481;DHT22;27217;51.220;5.308;2023-07-20T05:04:30;16.80;99.90
41481;DHT22;27217;51.220;5.308;2023-07-20T05:06:55;16.70;99.90
41481;DHT22;27217;51.220;5.308;2023-07-20T05:09:21;16.80;99.90
41481;DHT22;27217;51.220;5.308;2023-07-20T05:11:48;16.60;99.90
41481;DHT22;27217;51.220;5.308;2023-07-20T05:14:14;16.90;99.90
41481;DHT22;27217;51.220;5.308;2023-07-20T05:16:41;17.30;99.90
41481;DHT22;27217;51.220;5.308;2023-07-20T05:19:07;17.10;99.90
41481;DHT22;27217;51.220;5.308;2023-07-20T05:21:33;17.10;99.90
41481;DHT22;27217;51.220;5.308;2023-07-20T05:23:59;17.20;99.90
41481;DHT22;27217;51.220;5.308;2023-07-20T05:26:25;17.50;99.90
41481;DHT22;27217;51.220;5.308;2023-07-20T05:28:50;17.40;99.90
41481;DHT22;27217;51.220;5.308;2023-07-20T05:31:16;17.30;99.90
41481;DHT22;27217;51.220;5.308;2023-07-20T05:33:42;17.30;99.90
41481;DHT22;27217;51.220;5.308;2023-07-20T05:36:07;17.20;99.90
41481;DHT22;27217;51.220;5.308;2023-07-20T05:38:33;17.20;99.90
41481;DHT22;27217;51.220;5.308;2023-07-20T05:41:03;17.30;99.90
41481;DHT22;27217;51.220;5.308;2023-07-20T05:43:30;17.00;99.90
41481;DHT22;27217;51.220;5.308;2023-07-20T05:45:56;17.50;99.90
41481;DHT22;27217;51.220;5.308;2023-07-20T05:48:23;17.30;99.90
41481;DHT22;27217;51.220;5.308;2023-07-20T05:50:49;17.20;99.90
41481;DHT22;27217;51.220;5.308;2023-07-20T05:53:16;17.40;99.90
41481;DHT22;27217;51.220;5.308;2023-07-20T05:55:51;17.50;99.90
41481;DHT22;27217;51.220;5.308;2023-07-20T05:58:17;18.30;99.90
41481;DHT22;27217;51.220;5.308;2023-07-20T06:00:43;18.10;99.90
41481;DHT22;27217;51.220;5.308;2023-07-20T06:03:09;18.00;99.90
41481;DHT22;27217;51.220;5.308;2023-07-20T06:05:38;18.00;99.90
41481;DHT22;27217;51.220;5.308;2023-07-20T06:08:05;17.80;99.90
41481;DHT22;27217;51.220;5.308;2023-07-20T06:10:30;17.80;99.90
41481;DHT22;27217;51.220;5.308;2023-07-20T06:12:56;18.00;99.90
41481;DHT22;27217;51.220;5.308;2023-07-20T06:15:27;18.40;99.90
41481;DHT22;27217;51.220;5.308;2023-07-20T06:17:55;18.50;99.90
41481;DHT22;27217;51.220;5.308;2023-07-20T06:20:22;18.60;99.90
41481;DHT22;27217;51.220;5.308;2023-07-20T06:22:48;18.60;99.90
41481;DHT22;27217;51.220;5.308;2023-07-20T06:25:14;18.70;99.90
41481;DHT22;27217;51.220;5.308;2023-07-20T06:27:40;18.70;99.90
41481;DHT22;27217;51.220;5.308;2023-07-20T06:30:06;18.90;99.90
41481;DHT22;27217;51.220;5.308;2023-07-20T06:32:33;18.90;99.90
41481;DHT22;27217;51.220;5.308;2023-07-20T06:34:59;19.30;99.90
41481;DHT22;27217;51.220;5.308;2023-07-20T06:37:25;18.90;99.90
41481;DHT22;27217;51.220;5.308;2023-07-20T06:39:51;19.10;99.90
41481;DHT22;27217;51.220;5.308;2023-07-20T06:42:17;19.30;99.90
41481;DHT22;27217;51.220;5.308;2023-07-20T06:44:43;19.50;99.90
41481;DHT22;27217;51.220;5.308;2023-07-20T06:47:10;19.10;99.90
41481;DHT22;27217;51.220;5.308;2023-07-20T06:49:37;18.90;99.90
41481;DHT22;27217;51.220;5.308;2023-07-20T06:52:02;18.80;99.90
41481;DHT22;27217;51.220;5.308;2023-07-20T06:54:30;18.70;99.90
41481;DHT22;27217;51.220;5.308;2023-07-20T06:56:56;18.80;99.90
41481;DHT22;27217;51.220;5.308;2023-07-20T06:59:22;18.90;99.90
41481;DHT22;27217;51.220;5.308;2023-07-20T07:01:49;19.10;99.90
41481;DHT22;27217;51.220;5.308;2023-07-20T07:04:15;19.10;99.90
41481;DHT22;27217;51.220;5.308;2023-07-20T07:06:42;18.90;99.90
41481;DHT22;27217;51.220;5.308;2023-07-20T07:09:08;18.90;99.90
41481;DHT22;27217;51.220;5.308;2023-07-20T07:11:34;19.00;99.90
41481;DHT22;27217;51.220;5.308;2023-07-20T07:14:00;18.90;99.90
41481;DHT22;27217;51.220;5.308;2023-07-20T07:16:26;19.20;99.90
41481;DHT22;27217;51.220;5.308;2023-07-20T07:18:52;19.10;99.90
41481;DHT22;27217;51.220;5.308;2023-07-20T07:21:18;19.50;99.90
41481;DHT22;27217;51.220;5.308;2023-07-20T07:23:44;19.80;99.90
41481;DHT22;27217;51.220;5.308;2023-07-20T07:26:11;20.00;99.90
41481;DHT22;27217;51.220;5.308;2023-07-20T07:28:37;20.30;99.90
41481;DHT22;27217;51.220;5.308;2023-07-20T07:31:06;20.60;99.90
41481;DHT22;27217;51.220;5.308;2023-07-20T07:33:32;20.50;99.90
41481;DHT22;27217;51.220;5.308;2023-07-20T07:35:58;20.50;99.90
41481;DHT22;27217;51.220;5.308;2023-07-20T07:38:24;20.40;99.90
41481;DHT22;27217;51.220;5.308;2023-07-20T07:40:49;20.20;99.90
41481;DHT22;27217;51.220;5.308;2023-07-20T07:43:15;19.90;99.90
41481;DHT22;27217;51.220;5.308;2023-07-20T07:45:41;20.10;99.90
41481;DHT22;27217;51.220;5.308;2023-07-20T07:48:07;19.90;99.90
41481;DHT22;27217;51.220;5.308;2023-07-20T07:50:33;20.20;99.90
41481;DHT22;27217;51.220;5.308;2023-07-20T07:52:59;19.40;99.90
41481;DHT22;27217;51.220;5.308;2023-07-20T07:55:25;19.20;99.90
41481;DHT22;27217;51.220;5.308;2023-07-20T07:57:54;19.30;99.90
41481;DHT22;27217;51.220;5.308;2023-07-20T08:00:21;19.30;99.90
41481;DHT22;27217;51.220;5.308;2023-07-20T08:02:47;19.50;99.90
41481;DHT22;27217;51.220;5.308;2023-07-20T08:05:14;19.10;99.90
41481;DHT22;27217;51.220;5.308;2023-07-20T08:07:39;19.20;99.90
41481;DHT22;27217;51.220;5.308;2023-07-20T08:10:06;19.70;99.90
41481;DHT22;27217;51.220;5.308;2023-07-20T08:12:32;19.70;99.90
41481;DHT22;27217;51.220;5.308;2023-07-20T08:14:57;20.10;99.90
41481;DHT22;27217;51.220;5.308;2023-07-20T08:17:23;20.20;99.90
41481;DHT22;27217;51.220;5.308;2023-07-20T08:19:50;20.50;99.90
41481;DHT22;27217;51.220;5.308;2023-07-20T08:22:15;20.80;99.90
41481;DHT22;27217;51.220;5.308;2023-07-20T08:24:42;20.70;99.90
41481;DHT22;27217;51.220;5.308;2023-07-20T08:27:09;20.60;99.90
41481;DHT22;27217;51.220;5.308;2023-07-20T08:29:35;21.30;99.90
41481;DHT22;27217;51.220;5.308;2023-07-20T08:32:02;21.60;99.90
41481;DHT22;27217;51.220;5.308;2023-07-20T08:34:28;21.20;99.90
41481;DHT22;27217;51.220;5.308;2023-07-20T08:36:55;21.00;99.90
41481;DHT22;27217;51.220;5.308;2023-07-20T08:39:21;21.30;99.90
41481;DHT22;27217;51.220;5.308;2023-07-20T08:41:48;21.10;99.90
41481;DHT22;27217;51.220;5.308;2023-07-20T08:44:14;20.40;99.90
41481;DHT22;27217;51.220;5.308;2023-07-20T08:46:41;20.00;99.90
41481;DHT22;27217;51.220;5.308;2023-07-20T08:49:08;20.40;99.90
41481;DHT22;27217;51.220;5.308;2023-07-20T08:51:35;20.70;99.90
41481;DHT22;27217;51.220;5.308;2023-07-20T08:54:03;20.50;99.90
41481;DHT22;27217;51.220;5.308;2023-07-20T08:56:31;20.80;99.90
41481;DHT22;27217;51.220;5.308;2023-07-20T08:58:59;20.90;99.90
41481;DHT22;27217;51.220;5.308;2023-07-20T09:01:27;21.20;99.90
41481;DHT22;27217;51.220;5.308;2023-07-20T09:03:53;21.50;99.90
41481;DHT22;27217;51.220;5.308;2023-07-20T09:06:19;21.80;99.90
41481;DHT22;27217;51.220;5.308;2023-07-20T09:08:45;21.70;99.90
41481;DHT22;27217;51.220;5.308;2023-07-20T09:11:11;21.60;99.90
41481;DHT22;27217;51.220;5.308;2023-07-20T09:13:39;21.50;99.90
41481;DHT22;27217;51.220;5.308;2023-07-20T09:16:05;21.50;99.90
41481;DHT22;27217;51.220;5.308;2023-07-20T09:18:32;21.70;99.90
41481;DHT22;27217;51.220;5.308;2023-07-20T09:21:07;21.90;99.90
41481;DHT22;27217;51.220;5.308;2023-07-20T09:23:37;22.00;99.90
41481;DHT22;27217;51.220;5.308;2023-07-20T09:26:12;21.90;99.90
41481;DHT22;27217;51.220;5.308;2023-07-20T09:28:54;21.70;99.90
41481;DHT22;27217;51.220;5.308;2023-07-20T09:31:22;22.00;99.40
41481;DHT22;27217;51.220;5.308;2023-07-20T09:33:49;22.30;98.80
41481;DHT22;27217;51.220;5.308;2023-07-20T09:36:15;22.90;97.20
41481;DHT22;27217;51.220;5.308;2023-07-20T09:38:44;23.10;94.30
41481;DHT22;27217;51.220;5.308;2023-07-20T09:41:14;23.00;93.80
41481;DHT22;27217;51.220;5.308;2023-07-20T09:43:43;23.20;93.20
41481;DHT22;27217;51.220;5.308;2023-07-20T09:46:10;23.00;93.30
41481;DHT22;27217;51.220;5.308;2023-07-20T09:48:35;22.50;94.30
41481;DHT22;27217;51.220;5.308;2023-07-20T09:51:01;22.60;93.60
41481;DHT22;27217;51.220;5.308;2023-07-20T09:53:35;22.40;94.10
41481;DHT22;27217;51.220;5.308;2023-07-20T09:56:02;22.40;93.80
41481;DHT22;27217;51.220;5.308;2023-07-20T09:58:28;22.60;93.90
41481;DHT22;27217;51.220;5.308;2023-07-20T10:00:57;22.90;93.70
41481;DHT22;27217;51.220;5.308;2023-07-20T10:03:30;22.60;93.00
41481;DHT22;27217;51.220;5.308;2023-07-20T10:06:07;22.60;93.10
41481;DHT22;27217;51.220;5.308;2023-07-20T10:08:38;22.20;93.50
41481;DHT22;27217;51.220;5.308;2023-07-20T10:11:05;22.20;93.20
41481;DHT22;27217;51.220;5.308;2023-07-20T10:13:32;23.00;91.10
41481;DHT22;27217;51.220;5.308;2023-07-20T10:16:03;23.20;89.40
41481;DHT22;27217;51.220;5.308;2023-07-20T10:18:50;23.30;89.00
41481;DHT22;27217;51.220;5.308;2023-07-20T10:21:21;22.90;90.30
41481;DHT22;27217;51.220;5.308;2023-07-20T10:23:48;22.80;90.80
41481;DHT22;27217;51.220;5.308;2023-07-20T10:26:14;22.60;90.50
41481;DHT22;27217;51.220;5.308;2023-07-20T10:28:40;23.10;90.00
41481;DHT22;27217;51.220;5.308;2023-07-20T10:31:09;22.80;88.70
41481;DHT22;27217;51.220;5.308;2023-07-20T10:33:37;22.60;88.20
41481;DHT22;27217;51.220;5.308;2023-07-20T10:36:05;22.50;85.40
41481;DHT22;27217;51.220;5.308;2023-07-20T10:38:53;23.00;85.60
41481;DHT22;27217;51.220;5.308;2023-07-20T10:41:22;23.40;77.80
41481;DHT22;27217;51.220;5.308;2023-07-20T10:43:55;23.10;85.60
41481;DHT22;27217;51.220;5.308;2023-07-20T10:49:05;23.40;85.60
41481;DHT22;27217;51.220;5.308;2023-07-20T10:56:43;23.50;85.40
41481;DHT22;27217;51.220;5.308;2023-07-20T10:59:20;23.80;83.60
41481;DHT22;27217;51.220;5.308;2023-07-20T11:01:47;24.00;81.70
41481;DHT22;27217;51.220;5.308;2023-07-20T11:04:15;24.30;78.50
41481;DHT22;27217;51.220;5.308;2023-07-20T11:06:46;24.10;76.40
41481;DHT22;27217;51.220;5.308;2023-07-20T11:09:13;24.40;77.40
41481;DHT22;27217;51.220;5.308;2023-07-20T11:11:47;23.90;77.80
41481;DHT22;27217;51.220;5.308;2023-07-20T11:14:25;24.20;76.80
41481;DHT22;27217;51.220;5.308;2023-07-20T11:16:52;23.90;77.50
41481;DHT22;27217;51.220;5.308;2023-07-20T11:19:24;24.80;74.80
41481;DHT22;27217;51.220;5.308;2023-07-20T11:21:54;26.60;68.40
41481;DHT22;27217;51.220;5.308;2023-07-20T11:24:21;27.50;66.00
41481;DHT22;27217;51.220;5.308;2023-07-20T11:26:49;26.90;67.80
41481;DHT22;27217;51.220;5.308;2023-07-20T11:29:17;27.00;67.30
41481;DHT22;27217;51.220;5.308;2023-07-20T11:31:44;27.70;63.20
41481;DHT22;27217;51.220;5.308;2023-07-20T11:34:15;29.50;58.70
41481;DHT22;27217;51.220;5.308;2023-07-20T11:36:43;30.10;56.80
41481;DHT22;27217;51.220;5.308;2023-07-20T11:39:11;30.40;54.90
41481;DHT22;27217;51.220;5.308;2023-07-20T11:41:37;30.40;53.80
41481;DHT22;27217;51.220;5.308;2023-07-20T11:44:06;30.30;53.40
41481;DHT22;27217;51.220;5.308;2023-07-20T11:46:33;28.40;56.30
41481;DHT22;27217;51.220;5.308;2023-07-20T11:49:00;29.40;54.20
41481;DHT22;27217;51.220;5.308;2023-07-20T11:51:30;30.50;52.30
41481;DHT22;27217;51.220;5.308;2023-07-20T11:53:57;31.40;51.00
41481;DHT22;27217;51.220;5.308;2023-07-20T11:56:24;31.00;51.50
41481;DHT22;27217;51.220;5.308;2023-07-20T11:58:55;28.80;54.30
41481;DHT22;27217;51.220;5.308;2023-07-20T12:01:23;28.80;53.60
41481;DHT22;27217;51.220;5.308;2023-07-20T12:03:49;28.80;53.40
41481;DHT22;27217;51.220;5.308;2023-07-20T12:06:16;27.60;56.40
41481;DHT22;27217;51.220;5.308;2023-07-20T12:08:43;27.90;56.60
41481;DHT22;27217;51.220;5.308;2023-07-20T12:11:10;28.40;55.80
41481;DHT22;27217;51.220;5.308;2023-07-20T12:13:37;27.70;56.80
41481;DHT22;27217;51.220;5.308;2023-07-20T12:16:10;27.10;59.00
41481;DHT22;27217;51.220;5.308;2023-07-20T12:18:36;26.90;58.80
41481;DHT22;27217;51.220;5.308;2023-07-20T12:21:02;26.50;59.10
41481;DHT22;27217;51.220;5.308;2023-07-20T12:23:38;26.80;58.00
41481;DHT22;27217;51.220;5.308;2023-07-20T12:26:14;26.00;59.70
41481;DHT22;27217;51.220;5.308;2023-07-20T12:28:41;26.50;59.80
41481;DHT22;27217;51.220;5.308;2023-07-20T12:31:10;26.50;59.40
41481;DHT22;27217;51.220;5.308;2023-07-20T12:33:37;26.90;58.90
41481;DHT22;27217;51.220;5.308;2023-07-20T12:36:04;27.60;58.20
41481;DHT22;27217;51.220;5.308;2023-07-20T12:38:29;27.30;57.50
41481;DHT22;27217;51.220;5.308;2023-07-20T12:40:57;27.40;57.40
41481;DHT22;27217;51.220;5.308;2023-07-20T12:43:24;26.50;58.30
41481;DHT22;27217;51.220;5.308;2023-07-20T12:45:49;25.90;59.20
41481;DHT22;27217;51.220;5.308;2023-07-20T12:48:15;26.10;58.20
41481;DHT22;27217;51.220;5.308;2023-07-20T12:50:41;25.30;62.00
41481;DHT22;27217;51.220;5.308;2023-07-20T12:53:07;25.00;64.60
41481;DHT22;27217;51.220;5.308;2023-07-20T12:55:33;25.40;63.80
41481;DHT22;27217;51.220;5.308;2023-07-20T12:57:59;25.90;61.50
41481;DHT22;27217;51.220;5.308;2023-07-20T13:00:25;26.80;60.10
41481;DHT22;27217;51.220;5.308;2023-07-20T13:02:52;27.60;57.60
41481;DHT22;27217;51.220;5.308;2023-07-20T13:05:18;27.90;56.00
41481;DHT22;27217;51.220;5.308;2023-07-20T13:07:44;26.90;57.90
41481;DHT22;27217;51.220;5.308;2023-07-20T13:10:11;27.00;58.80
41481;DHT22;27217;51.220;5.308;2023-07-20T13:12:38;26.50;58.30
41481;DHT22;27217;51.220;5.308;2023-07-20T13:15:05;27.10;58.10
41481;DHT22;27217;51.220;5.308;2023-07-20T13:17:35;27.60;57.20
41481;DHT22;27217;51.220;5.308;2023-07-20T13:20:01;28.80;56.20
41481;DHT22;27217;51.220;5.308;2023-07-20T13:22:28;30.50;53.50
41481;DHT22;27217;51.220;5.308;2023-07-20T13:24:55;32.10;50.40
41481;DHT22;27217;51.220;5.308;2023-07-20T13:27:21;33.00;49.00
41481;DHT22;27217;51.220;5.308;2023-07-20T13:29:47;31.00;50.10
41481;DHT22;27217;51.220;5.308;2023-07-20T13:32:14;28.40;55.50
41481;DHT22;27217;51.220;5.308;2023-07-20T13:34:40;26.70;58.40
41481;DHT22;27217;51.220;5.308;2023-07-20T13:37:06;27.60;58.20
41481;DHT22;27217;51.220;5.308;2023-07-20T13:39:32;28.00;55.40
41481;DHT22;27217;51.220;5.308;2023-07-20T13:42:01;27.30;56.90
41481;DHT22;27217;51.220;5.308;2023-07-20T13:44:29;27.80;57.70
41481;DHT22;27217;51.220;5.308;2023-07-20T13:46:55;27.90;56.40
41481;DHT22;27217;51.220;5.308;2023-07-20T13:49:21;26.50;58.80
41481;DHT22;27217;51.220;5.308;2023-07-20T13:51:47;25.80;60.90
41481;DHT22;27217;51.220;5.308;2023-07-20T13:54:13;26.20;59.90
41481;DHT22;27217;51.220;5.308;2023-07-20T13:56:39;26.50;59.10
41481;DHT22;27217;51.220;5.308;2023-07-20T13:59:04;26.30;59.50
41481;DHT22;27217;51.220;5.308;2023-07-20T14:01:33;26.50;57.40
41481;DHT22;27217;51.220;5.308;2023-07-20T14:04:01;26.00;59.30
41481;DHT22;27217;51.220;5.308;2023-07-20T14:06:30;26.20;58.60
41481;DHT22;27217;51.220;5.308;2023-07-20T14:08:56;26.40;58.60
41481;DHT22;27217;51.220;5.308;2023-07-20T14:11:23;25.70;58.90
41481;DHT22;27217;51.220;5.308;2023-07-20T14:13:52;25.70;60.00
41481;DHT22;27217;51.220;5.308;2023-07-20T14:16:21;25.40;61.10
41481;DHT22;27217;51.220;5.308;2023-07-20T14:18:49;24.80;62.10
41481;DHT22;27217;51.220;5.308;2023-07-20T14:21:19;24.10;64.60
41481;DHT22;27217;51.220;5.308;2023-07-20T14:23:51;23.90;64.80
41481;DHT22;27217;51.220;5.308;2023-07-20T14:26:17;23.90;64.80
41481;DHT22;27217;51.220;5.308;2023-07-20T14:28:43;24.10;64.30
41481;DHT22;27217;51.220;5.308;2023-07-20T14:31:09;24.00;65.10
41481;DHT22;27217;51.220;5.308;2023-07-20T14:33:35;24.10;65.00
41481;DHT22;27217;51.220;5.308;2023-07-20T14:36:02;24.20;63.70
41481;DHT22;27217;51.220;5.308;2023-07-20T14:38:30;24.50;63.40
41481;DHT22;27217;51.220;5.308;2023-07-20T14:40:56;24.60;62.50
41481;DHT22;27217;51.220;5.308;2023-07-20T14:43:22;24.70;62.60
41481;DHT22;27217;51.220;5.308;2023-07-20T14:45:48;24.90;61.90
41481;DHT22;27217;51.220;5.308;2023-07-20T14:48:15;24.90;61.60
41481;DHT22;27217;51.220;5.308;2023-07-20T14:50:40;23.80;64.80
41481;DHT22;27217;51.220;5.308;2023-07-20T14:53:06;24.00;64.70
41481;DHT22;27217;51.220;5.308;2023-07-20T14:55:33;24.30;63.90
41481;DHT22;27217;51.220;5.308;2023-07-20T14:57:59;24.60;64.00
41481;DHT22;27217;51.220;5.308;2023-07-20T15:00:25;23.90;65.60
41481;DHT22;27217;51.220;5.308;2023-07-20T15:02:51;23.60;66.10
41481;DHT22;27217;51.220;5.308;2023-07-20T15:05:22;23.60;66.40
41481;DHT22;27217;51.220;5.308;2023-07-20T15:07:48;24.20;65.50
41481;DHT22;27217;51.220;5.308;2023-07-20T15:10:15;23.50;67.00
41481;DHT22;27217;51.220;5.308;2023-07-20T15:12:42;23.70;66.00
41481;DHT22;27217;51.220;5.308;2023-07-20T15:15:12;23.80;66.00
41481;DHT22;27217;51.220;5.308;2023-07-20T15:17:39;23.90;65.30
41481;DHT22;27217;51.220;5.308;2023-07-20T15:20:07;24.00;63.70
41481;DHT22;27217;51.220;5.308;2023-07-20T15:22:34;23.60;64.50
41481;DHT22;27217;51.220;5.308;2023-07-20T15:25:02;23.70;64.70
41481;DHT22;27217;51.220;5.308;2023-07-20T15:27:28;23.40;64.80
41481;DHT22;27217;51.220;5.308;2023-07-20T15:29:55;23.00;66.60
41481;DHT22;27217;51.220;5.308;2023-07-20T15:32:20;23.00;68.20
41481;DHT22;27217;51.220;5.308;2023-07-20T15:34:47;23.10;68.30
41481;DHT22;27217;51.220;5.308;2023-07-20T15:37:13;23.40;68.50
41481;DHT22;27217;51.220;5.308;2023-07-20T15:39:39;23.60;68.40
41481;DHT22;27217;51.220;5.308;2023-07-20T15:42:05;23.80;67.70
41481;DHT22;27217;51.220;5.308;2023-07-20T15:44:31;23.60;66.00
41481;DHT22;27217;51.220;5.308;2023-07-20T15:46:57;23.40;67.00
41481;DHT22;27217;51.220;5.308;2023-07-20T15:49:23;23.10;68.70